Main page
METAR-TAF:

METAR-TAF

Airports :

Sonora Municipal Airport

Sonora, Texas, United States

latitude: 30-35-08N, longitude: 100-38-54W, elevation: 2139 ft

METAR: missing

Time: 11:41 (16:41 UTC)

Forecast

The report was made 5 hours and 21 minutes ago, at 11:20 UTC
Forecast valid from 15 at 12 UTC to 16 at 12 UTC
Wind 5 mph from variable directions
Visibility: 6 miles
Few clouds at a height of 25000 ft
From 15 at 1300 UTC
Wind 8 mph from the South/Southeast
Visibility: 6 miles
Scattered clouds at a height of 10000 ft
From 16 at 0500 UTC
Wind 13 mph from the South/Southeast
Visibility: 6 miles
Clear sky

TAF: KSOA 151120Z 1512/1612 VRB04KT P6SM FEW250 FM151300 16007KT P6SM SCT100 FM160500 15011KT P6SM SKC AMD NOT SKED

Weather observations and forecasts of more than 4000 airports (METAR and TAF reports).

The available stations are represented by yellow and red dots on the map.

Hover mouse over dot to see the name of the station.

Then click to see weather observations and forecasts.

To change the map : click on the green buttons with a black cross to zoom in, on the green button with a dash to zoom out, or on the green arrows for adjacent maps.


METAR-TAF: